createdAt,value
2023-01-26T00:02:10.110Z,47.10
2023-01-26T00:04:42.511Z,48.80
2023-01-26T00:07:14.945Z,149.40
2023-01-26T00:09:47.513Z,76.10
2023-01-26T00:12:19.887Z,55.30
2023-01-26T00:14:52.250Z,48.90
2023-01-26T00:17:27.477Z,48.70
2023-01-26T00:22:31.737Z,54.70
2023-01-26T00:25:04.095Z,59.10
2023-01-26T00:27:36.673Z,41.80
2023-01-26T00:30:12.227Z,41.80
2023-01-26T00:32:44.809Z,50.30
2023-01-26T00:35:17.325Z,56.10
2023-01-26T00:37:49.896Z,44.30
2023-01-26T00:40:22.346Z,44.20
2023-01-26T00:42:55.639Z,39.20
2023-01-26T00:45:28.084Z,43.90
2023-01-26T00:48:00.941Z,42.60
2023-01-26T00:50:35.052Z,43.70
2023-01-26T00:53:07.492Z,47.10
2023-01-26T00:55:40.190Z,52.10
2023-01-26T00:58:13.273Z,78.20
2023-01-26T01:00:45.639Z,46.60
2023-01-26T01:03:18.143Z,47.40
2023-01-26T01:05:53.041Z,42.40
2023-01-26T01:08:25.435Z,42.90
2023-01-26T01:11:08.286Z,44.00
2023-01-26T01:13:41.281Z,48.30
2023-01-26T01:16:16.672Z,45.10
2023-01-26T01:18:49.127Z,48.10
2023-01-26T01:21:21.783Z,44.10
2023-01-26T01:23:54.169Z,45.60
2023-01-26T01:26:26.547Z,51.10
2023-01-26T01:28:59.390Z,48.90
2023-01-26T01:31:32.035Z,39.20
2023-01-26T01:34:04.588Z,50.20
2023-01-26T01:36:36.924Z,42.80
2023-01-26T01:39:09.414Z,43.90
2023-01-26T01:41:41.804Z,47.20
2023-01-26T01:44:21.984Z,45.10
2023-01-26T01:46:58.591Z,46.10
2023-01-26T01:49:34.685Z,43.60
2023-01-26T01:52:12.170Z,42.60
2023-01-26T01:54:48.948Z,45.00
2023-01-26T01:57:27.946Z,44.20
2023-01-26T02:00:04.277Z,45.30
2023-01-26T02:03:07.327Z,47.40
2023-01-26T02:05:47.378Z,48.60
2023-01-26T02:08:22.870Z,45.90
2023-01-26T02:10:59.966Z,46.80
2023-01-26T02:13:34.750Z,40.50
2023-01-26T02:16:10.937Z,44.20
2023-01-26T02:18:43.795Z,40.10
2023-01-26T02:21:21.268Z,36.80
2023-01-26T02:24:05.033Z,37.20
2023-01-26T02:26:38.871Z,34.20
2023-01-26T02:29:12.845Z,34.40
2023-01-26T02:31:49.496Z,38.10
2023-01-26T02:34:21.975Z,29.80
2023-01-26T02:37:01.624Z,32.60
2023-01-26T02:39:45.654Z,34.90
2023-01-26T02:42:36.127Z,34.40
2023-01-26T02:45:11.232Z,34.00
2023-01-26T02:50:16.963Z,28.40
2023-01-26T02:52:49.743Z,33.90
2023-01-26T02:55:25.475Z,32.30
2023-01-26T02:57:59.680Z,32.20
2023-01-26T03:00:35.088Z,29.80
2023-01-26T03:05:43.645Z,28.20
2023-01-26T03:08:16.188Z,29.40
2023-01-26T03:10:49.230Z,29.80
2023-01-26T03:13:23.095Z,25.90
2023-01-26T03:15:55.513Z,23.70
2023-01-26T03:18:46.235Z,26.10
2023-01-26T03:21:37.274Z,27.90
2023-01-26T03:24:31.258Z,22.80
2023-01-26T03:27:22.458Z,27.70
2023-01-26T03:29:56.637Z,27.50
2023-01-26T03:32:29.332Z,31.90
2023-01-26T03:35:02.105Z,24.60
2023-01-26T03:37:37.116Z,27.90
2023-01-26T03:40:34.369Z,25.10
2023-01-26T03:43:28.374Z,26.10
2023-01-26T03:46:20.660Z,24.40
2023-01-26T03:49:10.659Z,26.80
2023-01-26T03:52:00.433Z,26.50
2023-01-26T03:54:50.601Z,24.80
2023-01-26T03:57:23.469Z,24.00
2023-01-26T03:59:56.022Z,25.70
2023-01-26T04:02:46.298Z,23.30
2023-01-26T04:05:35.958Z,27.60
2023-01-26T04:08:24.805Z,21.70
2023-01-26T04:11:02.966Z,26.80
2023-01-26T04:13:53.017Z,24.00
2023-01-26T04:16:51.831Z,26.00
2023-01-26T04:19:41.795Z,24.50
2023-01-26T04:22:15.160Z,25.60
2023-01-26T04:24:49.047Z,28.90
2023-01-26T04:27:21.504Z,29.60
2023-01-26T04:29:53.829Z,27.70
2023-01-26T04:32:27.270Z,29.60
2023-01-26T04:34:59.764Z,27.80
2023-01-26T04:37:33.357Z,30.90
2023-01-26T04:40:07.276Z,27.10
2023-01-26T04:42:41.158Z,27.00
2023-01-26T04:45:14.601Z,29.10
2023-01-26T04:47:48.109Z,30.30
2023-01-26T04:50:22.008Z,61.20
2023-01-26T04:52:54.355Z,37.20
2023-01-26T04:55:26.629Z,27.60
2023-01-26T04:57:59.110Z,25.00
2023-01-26T05:00:31.373Z,25.60
2023-01-26T05:03:03.805Z,26.00
2023-01-26T05:05:40.070Z,30.40
2023-01-26T05:08:12.675Z,30.00
2023-01-26T05:10:45.265Z,29.50
2023-01-26T05:13:27.546Z,32.40
2023-01-26T05:16:18.557Z,32.00
2023-01-26T05:19:21.137Z,24.90
2023-01-26T05:22:03.779Z,27.70
2023-01-26T05:24:38.017Z,27.10
2023-01-26T05:27:22.441Z,29.10
2023-01-26T05:30:02.037Z,30.00
2023-01-26T05:32:36.608Z,31.80
2023-01-26T05:35:10.015Z,35.40
2023-01-26T05:37:43.316Z,33.30
2023-01-26T05:40:16.474Z,36.80
2023-01-26T05:42:49.782Z,39.40
2023-01-26T05:45:40.883Z,43.10
2023-01-26T05:48:14.542Z,34.50
2023-01-26T05:50:47.167Z,32.60
2023-01-26T05:53:21.568Z,32.60
2023-01-26T05:55:54.241Z,30.60
2023-01-26T05:58:29.825Z,51.80
2023-01-26T06:01:06.946Z,65.80
2023-01-26T06:03:45.346Z,58.70
2023-01-26T06:06:17.829Z,47.40
2023-01-26T06:08:57.563Z,122.50
2023-01-26T06:11:40.170Z,167.20
2023-01-26T06:14:26.898Z,115.60
2023-01-26T06:16:59.785Z,137.20
2023-01-26T06:19:32.180Z,103.40
2023-01-26T06:22:09.163Z,84.30
2023-01-26T06:24:43.428Z,48.60
2023-01-26T06:27:18.978Z,45.10
2023-01-26T06:29:53.731Z,52.10
2023-01-26T06:32:28.199Z,60.00
2023-01-26T06:35:01.296Z,64.40
2023-01-26T06:37:33.711Z,68.30
2023-01-26T06:40:09.806Z,52.90
2023-01-26T06:42:47.856Z,57.80
2023-01-26T06:45:20.923Z,55.90
2023-01-26T06:47:55.177Z,48.90
2023-01-26T06:50:33.020Z,38.70
2023-01-26T06:53:26.411Z,41.80
2023-01-26T06:56:17.502Z,45.40
2023-01-26T06:59:02.249Z,43.10
2023-01-26T07:01:53.059Z,41.00
2023-01-26T07:04:28.373Z,46.70
2023-01-26T07:07:00.889Z,47.00
2023-01-26T07:09:33.168Z,58.40
2023-01-26T07:12:06.053Z,64.40
2023-01-26T07:14:38.445Z,73.00
2023-01-26T07:17:10.700Z,71.30
2023-01-26T07:19:42.970Z,71.70
2023-01-26T07:22:19.766Z,71.00
2023-01-26T07:24:51.960Z,63.10
2023-01-26T07:27:24.152Z,59.90
2023-01-26T07:29:56.599Z,66.30
2023-01-26T07:32:28.967Z,55.60
2023-01-26T07:35:01.274Z,52.10
2023-01-26T07:37:33.716Z,47.80
2023-01-26T07:40:07.064Z,49.30
2023-01-26T07:42:39.538Z,71.60
2023-01-26T07:45:24.072Z,63.50
2023-01-26T07:47:58.955Z,58.10
2023-01-26T07:53:04.244Z,47.50
2023-01-26T07:55:36.579Z,51.80
2023-01-26T07:58:08.831Z,60.70
2023-01-26T08:00:41.359Z,187.70
2023-01-26T08:03:13.735Z,485.30
2023-01-26T08:05:47.334Z,430.00
2023-01-26T08:08:20.058Z,377.10
2023-01-26T08:10:52.283Z,373.90
2023-01-26T08:13:34.630Z,313.90
2023-01-26T08:16:12.229Z,161.60
2023-01-26T08:18:46.393Z,141.20
2023-01-26T08:21:19.917Z,356.50
2023-01-26T08:23:53.363Z,313.70
2023-01-26T08:26:25.732Z,214.60
2023-01-26T08:28:58.627Z,149.20
2023-01-26T08:31:31.060Z,132.40
2023-01-26T08:34:04.234Z,153.40
2023-01-26T08:36:36.470Z,132.30
2023-01-26T08:39:08.928Z,117.40
2023-01-26T08:41:41.342Z,118.20
2023-01-26T08:44:13.978Z,94.00
2023-01-26T08:46:47.478Z,50.60
2023-01-26T08:49:19.937Z,58.20
2023-01-26T08:51:52.348Z,69.50
2023-01-26T08:54:24.683Z,66.50
2023-01-26T08:56:56.932Z,63.80
2023-01-26T08:59:29.238Z,53.70
2023-01-26T09:02:01.607Z,53.30
2023-01-26T09:04:34.369Z,59.30
2023-01-26T09:07:07.115Z,58.60
2023-01-26T09:09:39.506Z,46.50
2023-01-26T09:12:11.840Z,49.90
2023-01-26T09:14:44.149Z,48.80
2023-01-26T09:17:16.432Z,53.50
2023-01-26T09:19:48.568Z,49.90
2023-01-26T09:22:20.790Z,54.20
2023-01-26T09:24:53.040Z,51.80
2023-01-26T09:27:25.664Z,56.30
2023-01-26T09:29:58.143Z,49.40
2023-01-26T09:32:31.166Z,54.70
2023-01-26T09:35:03.470Z,58.60
2023-01-26T09:37:35.792Z,45.80
2023-01-26T09:40:16.881Z,49.00
2023-01-26T09:43:06.519Z,73.00
2023-01-26T09:45:47.891Z,65.10
2023-01-26T09:48:32.821Z,68.70
2023-01-26T09:51:10.663Z,67.60
2023-01-26T09:53:54.219Z,69.10
2023-01-26T09:56:29.556Z,60.30
2023-01-26T09:59:06.693Z,55.80
2023-01-26T10:01:44.973Z,55.50
2023-01-26T10:04:29.919Z,59.30
2023-01-26T10:07:03.286Z,62.20
2023-01-26T10:09:53.133Z,52.60
2023-01-26T10:12:29.864Z,56.90
2023-01-26T10:15:08.498Z,55.10
2023-01-26T10:17:43.968Z,89.80
2023-01-26T10:20:26.213Z,82.20
2023-01-26T10:23:03.719Z,76.40
2023-01-26T10:25:39.601Z,109.20
2023-01-26T10:28:17.417Z,146.50
2023-01-26T10:30:51.471Z,73.60
2023-01-26T10:33:29.446Z,59.60
2023-01-26T10:36:02.187Z,58.70
2023-01-26T10:38:45.539Z,56.00
2023-01-26T10:41:31.104Z,58.30
2023-01-26T10:44:06.186Z,53.60
2023-01-26T10:46:39.841Z,62.90
2023-01-26T10:49:18.959Z,78.10
2023-01-26T10:52:08.543Z,87.50
2023-01-26T10:54:43.796Z,67.20
2023-01-26T10:57:23.445Z,75.80
2023-01-26T10:59:59.097Z,71.90
2023-01-26T11:02:33.026Z,62.00
2023-01-26T11:05:21.529Z,75.50
2023-01-26T11:07:58.803Z,55.30
2023-01-26T11:10:35.016Z,64.10
2023-01-26T11:13:16.718Z,75.70
2023-01-26T11:15:51.080Z,72.90
2023-01-26T11:18:35.767Z,73.90
2023-01-26T11:21:12.933Z,73.40
2023-01-26T11:23:55.312Z,59.30
2023-01-26T11:26:49.496Z,59.80
2023-01-26T11:29:38.592Z,54.00
2023-01-26T11:32:23.516Z,60.30
2023-01-26T11:35:06.262Z,61.60
2023-01-26T11:37:44.392Z,66.30
2023-01-26T11:40:31.569Z,67.90
2023-01-26T11:43:24.039Z,60.80
2023-01-26T11:46:09.739Z,66.70
2023-01-26T11:48:58.013Z,81.80
2023-01-26T11:51:45.420Z,71.90
2023-01-26T11:54:39.906Z,63.10
2023-01-26T11:57:23.084Z,81.60
2023-01-26T12:00:01.176Z,84.80
2023-01-26T12:02:36.903Z,59.40
2023-01-26T12:05:18.928Z,66.40
2023-01-26T12:07:55.776Z,75.40
2023-01-26T12:10:34.660Z,60.10
2023-01-26T12:13:15.536Z,78.00
2023-01-26T12:15:53.974Z,89.20
2023-01-26T12:18:46.803Z,143.20
2023-01-26T12:21:22.050Z,201.20
2023-01-26T12:23:59.863Z,135.70
2023-01-26T12:26:38.003Z,86.00
2023-01-26T12:29:18.181Z,75.00
2023-01-26T12:31:56.286Z,69.00
2023-01-26T12:34:33.515Z,82.40
2023-01-26T12:37:27.450Z,78.20
2023-01-26T12:40:14.091Z,79.20
2023-01-26T12:42:51.740Z,101.60
2023-01-26T12:45:30.292Z,110.90
2023-01-26T12:48:12.917Z,93.70
2023-01-26T12:50:50.732Z,105.80
2023-01-26T12:53:30.259Z,79.80
2023-01-26T12:56:10.820Z,67.80
2023-01-26T12:58:47.033Z,83.30
2023-01-26T13:01:22.433Z,96.90
2023-01-26T13:03:59.016Z,78.50
2023-01-26T13:06:32.044Z,87.70
2023-01-26T13:09:19.763Z,77.80
2023-01-26T13:11:54.754Z,83.20
2023-01-26T13:17:40.550Z,83.80
2023-01-26T13:20:43.497Z,70.70
2023-01-26T13:23:53.082Z,76.60
2023-01-26T13:26:45.608Z,65.10
2023-01-26T13:29:36.246Z,60.10
2023-01-26T13:32:48.390Z,67.60
2023-01-26T13:35:24.288Z,72.70
2023-01-26T13:38:04.639Z,65.70
2023-01-26T13:40:38.848Z,57.40
2023-01-26T13:43:26.649Z,48.20
2023-01-26T13:46:13.778Z,58.40
2023-01-26T13:48:48.852Z,57.70
2023-01-26T13:53:59.158Z,49.90
2023-01-26T13:56:34.490Z,47.80
2023-01-26T13:59:12.635Z,93.10
2023-01-26T14:01:47.617Z,70.00
2023-01-26T14:04:21.742Z,46.30
2023-01-26T14:06:57.578Z,52.60
2023-01-26T14:09:32.818Z,45.10
2023-01-26T14:12:08.471Z,49.50
2023-01-26T14:14:41.464Z,51.00
2023-01-26T14:17:28.365Z,47.40
2023-01-26T14:20:03.739Z,44.30
2023-01-26T14:22:37.824Z,49.10
2023-01-26T14:25:12.323Z,47.20
2023-01-26T14:27:45.102Z,50.10
2023-01-26T14:30:29.913Z,46.90
2023-01-26T14:33:07.501Z,50.60
2023-01-26T14:35:40.000Z,43.20
2023-01-26T14:38:20.051Z,48.50
2023-01-26T14:40:54.219Z,42.40
2023-01-26T14:43:30.204Z,49.50
2023-01-26T14:46:08.034Z,44.90
2023-01-26T14:48:44.264Z,39.20
2023-01-26T14:51:23.014Z,45.70
2023-01-26T14:53:59.827Z,47.30
2023-01-26T14:56:38.189Z,49.10
2023-01-26T14:59:20.090Z,49.90
2023-01-26T15:01:52.590Z,55.80
2023-01-26T15:04:37.921Z,50.20
2023-01-26T15:07:36.511Z,51.40
2023-01-26T15:10:31.842Z,40.30
2023-01-26T15:13:07.217Z,46.00
2023-01-26T15:15:41.147Z,49.30
2023-01-26T15:18:21.959Z,57.50
2023-01-26T15:21:01.377Z,64.40
2023-01-26T15:23:36.244Z,50.40
2023-01-26T15:26:10.785Z,49.90
2023-01-26T15:28:43.324Z,55.80
2023-01-26T15:31:26.557Z,53.30
2023-01-26T15:34:01.730Z,59.80
2023-01-26T15:36:48.335Z,71.90
2023-01-26T15:39:21.723Z,90.10
2023-01-26T15:42:13.596Z,81.30
2023-01-26T15:44:45.893Z,77.10
2023-01-26T15:47:18.196Z,65.10
2023-01-26T15:49:50.599Z,52.20
2023-01-26T15:52:25.862Z,54.40
2023-01-26T15:54:58.206Z,52.50
2023-01-26T15:57:31.712Z,54.60
2023-01-26T16:00:04.939Z,62.30
2023-01-26T16:02:39.225Z,76.20
2023-01-26T16:05:17.262Z,54.20
2023-01-26T16:07:53.051Z,48.50
2023-01-26T16:10:25.322Z,49.60
2023-01-26T16:12:57.786Z,49.20
2023-01-26T16:15:43.457Z,55.10
2023-01-26T16:18:16.094Z,53.00
2023-01-26T16:20:50.201Z,53.00
2023-01-26T16:23:24.863Z,42.10
2023-01-26T16:25:57.483Z,45.70
2023-01-26T16:28:29.886Z,42.70
2023-01-26T16:31:06.678Z,40.70
2023-01-26T16:33:39.005Z,46.80
2023-01-26T16:36:14.579Z,51.80
2023-01-26T16:38:47.665Z,49.60
2023-01-26T16:41:25.647Z,45.30
2023-01-26T16:43:59.695Z,50.90
2023-01-26T16:46:33.333Z,43.50
2023-01-26T16:49:05.652Z,41.70
2023-01-26T16:51:41.673Z,39.70
2023-01-26T16:54:14.175Z,63.90
2023-01-26T16:56:46.416Z,54.20
2023-01-26T16:59:18.707Z,48.00
2023-01-26T17:01:51.040Z,60.50
2023-01-26T17:04:23.412Z,86.50
2023-01-26T17:06:55.668Z,75.80
2023-01-26T17:09:28.714Z,123.80
2023-01-26T17:12:00.978Z,123.80
2023-01-26T17:14:33.386Z,106.60
2023-01-26T17:17:06.023Z,99.30
2023-01-26T17:19:38.319Z,86.30
2023-01-26T17:22:10.663Z,75.90
2023-01-26T17:24:43.680Z,73.90
2023-01-26T17:27:16.077Z,58.70
2023-01-26T17:29:50.100Z,78.00
2023-01-26T17:32:25.570Z,66.50
2023-01-26T17:34:58.198Z,71.40
2023-01-26T17:37:31.707Z,78.10
2023-01-26T17:40:04.698Z,98.70
2023-01-26T17:42:37.037Z,123.30
2023-01-26T17:48:21.479Z,74.90
2023-01-26T17:50:56.074Z,92.00
2023-01-26T17:53:29.108Z,80.00
2023-01-26T17:56:01.322Z,70.80
2023-01-26T17:58:33.554Z,62.70
2023-01-26T18:01:06.374Z,70.10
2023-01-26T18:03:42.952Z,62.90
2023-01-26T18:06:15.620Z,76.80
2023-01-26T18:08:48.581Z,70.10
2023-01-26T18:11:21.332Z,75.50
2023-01-26T18:13:55.491Z,69.60
2023-01-26T18:16:27.776Z,63.80
2023-01-26T18:19:01.381Z,59.60
2023-01-26T18:21:36.027Z,75.50
2023-01-26T18:24:11.104Z,83.50
2023-01-26T18:26:43.355Z,174.80
2023-01-26T18:29:16.793Z,199.50
2023-01-26T18:31:49.253Z,210.80
2023-01-26T18:34:21.590Z,251.60
2023-01-26T18:36:53.747Z,252.80
2023-01-26T18:39:25.885Z,141.10
2023-01-26T18:41:58.207Z,109.00
2023-01-26T18:44:30.387Z,69.80
2023-01-26T18:47:02.574Z,69.60
2023-01-26T18:49:34.726Z,63.50
2023-01-26T18:52:06.915Z,59.70
2023-01-26T18:54:39.112Z,55.40
2023-01-26T18:57:11.251Z,52.50
2023-01-26T18:59:43.401Z,54.30
2023-01-26T19:02:16.478Z,50.70
2023-01-26T19:04:48.737Z,49.60
2023-01-26T19:07:21.369Z,53.80
2023-01-26T19:09:53.559Z,54.40
2023-01-26T19:12:25.820Z,58.90
2023-01-26T19:14:58.009Z,62.40
2023-01-26T19:17:30.252Z,73.20
2023-01-26T19:20:02.516Z,73.80
2023-01-26T19:22:34.676Z,61.00
2023-01-26T19:25:07.587Z,119.50
2023-01-26T19:27:40.482Z,93.10
2023-01-26T19:30:15.571Z,95.00
2023-01-26T19:33:04.806Z,79.30
2023-01-26T19:35:39.367Z,73.30
2023-01-26T19:38:11.556Z,69.30
2023-01-26T19:40:47.093Z,54.90
2023-01-26T19:43:20.238Z,65.10
2023-01-26T19:45:54.131Z,65.60
2023-01-26T19:48:28.806Z,62.70
2023-01-26T19:51:03.521Z,67.40
2023-01-26T19:53:37.906Z,70.20
2023-01-26T19:56:11.715Z,96.40
2023-01-26T19:58:44.155Z,74.80
2023-01-26T20:01:16.456Z,64.80
2023-01-26T20:03:52.785Z,60.60
2023-01-26T20:06:27.416Z,84.00
2023-01-26T20:09:00.894Z,140.70
2023-01-26T20:11:34.265Z,115.60
2023-01-26T20:14:08.866Z,107.90
2023-01-26T20:16:41.283Z,125.20
2023-01-26T20:19:15.099Z,202.30
2023-01-26T20:21:47.343Z,165.30
2023-01-26T20:24:20.017Z,142.90
2023-01-26T20:26:53.178Z,275.30
2023-01-26T20:29:25.401Z,251.20
2023-01-26T20:31:57.676Z,182.80
2023-01-26T20:34:30.048Z,123.00
2023-01-26T20:37:02.236Z,109.00
2023-01-26T20:39:34.416Z,110.50
2023-01-26T20:42:06.868Z,97.50
2023-01-26T20:44:42.373Z,76.50
2023-01-26T20:47:15.471Z,69.70
2023-01-26T20:49:47.689Z,73.00
2023-01-26T20:52:21.889Z,73.70
2023-01-26T20:54:54.720Z,69.20
2023-01-26T20:57:27.036Z,55.80
2023-01-26T20:59:59.352Z,51.50
2023-01-26T21:02:31.523Z,55.40
2023-01-26T21:05:05.338Z,50.30
2023-01-26T21:07:37.953Z,58.60
2023-01-26T21:10:11.798Z,59.50
2023-01-26T21:12:45.592Z,61.00
2023-01-26T21:15:17.929Z,70.70
2023-01-26T21:17:50.367Z,99.90
2023-01-26T21:20:24.174Z,71.10
2023-01-26T21:22:58.711Z,77.70
2023-01-26T21:25:30.961Z,68.60
2023-01-26T21:28:03.172Z,66.30
2023-01-26T21:30:35.445Z,61.90
2023-01-26T21:33:07.732Z,64.70
2023-01-26T21:35:40.557Z,67.40
2023-01-26T21:38:12.805Z,68.90
2023-01-26T21:40:44.971Z,79.20
2023-01-26T21:43:17.171Z,77.80
2023-01-26T21:45:56.010Z,79.80
2023-01-26T21:48:38.167Z,90.10
2023-01-26T21:51:28.918Z,79.20
2023-01-26T21:54:01.938Z,70.80
2023-01-26T21:56:34.612Z,60.10
2023-01-26T21:59:14.686Z,63.00
2023-01-26T22:01:48.903Z,74.00
2023-01-26T22:04:24.320Z,72.20
2023-01-26T22:06:56.845Z,83.40
2023-01-26T22:09:30.114Z,142.10
2023-01-26T22:12:02.327Z,193.00
2023-01-26T22:14:34.612Z,123.20
2023-01-26T22:17:06.880Z,99.80
2023-01-26T22:19:39.159Z,106.90
2023-01-26T22:22:12.799Z,79.50
2023-01-26T22:24:45.054Z,66.20
2023-01-26T22:27:17.253Z,63.50
2023-01-26T22:29:49.450Z,51.00
2023-01-26T22:32:21.733Z,55.80
2023-01-26T22:34:54.019Z,59.50
2023-01-26T22:37:26.484Z,72.50
2023-01-26T22:39:59.491Z,86.90
2023-01-26T22:42:31.744Z,78.10
2023-01-26T22:45:04.155Z,72.20
2023-01-26T22:47:38.623Z,81.00
2023-01-26T22:50:14.103Z,86.20
2023-01-26T22:52:46.512Z,82.60
2023-01-26T22:55:19.297Z,66.00
2023-01-26T22:57:51.738Z,60.60
2023-01-26T23:00:24.260Z,69.20
2023-01-26T23:02:56.526Z,57.70
2023-01-26T23:05:28.763Z,66.40
2023-01-26T23:08:01.380Z,57.90
2023-01-26T23:10:33.749Z,49.50
2023-01-26T23:13:06.398Z,49.00
2023-01-26T23:15:40.638Z,47.50
2023-01-26T23:18:12.917Z,45.00
2023-01-26T23:20:45.134Z,45.10
2023-01-26T23:23:19.277Z,50.20
2023-01-26T23:25:51.951Z,41.90
2023-01-26T23:28:26.237Z,43.00
2023-01-26T23:30:59.804Z,51.20
2023-01-26T23:33:33.869Z,44.50
2023-01-26T23:36:07.679Z,41.50
2023-01-26T23:38:40.556Z,41.40
2023-01-26T23:41:12.972Z,36.00
2023-01-26T23:43:45.354Z,39.60
2023-01-26T23:46:17.619Z,33.60
2023-01-26T23:48:49.869Z,36.40
2023-01-26T23:51:22.204Z,36.80
2023-01-26T23:53:55.867Z,37.30
2023-01-26T23:56:28.074Z,42.60
2023-01-26T23:59:00.205Z,38.10
